QTR1183 OEJN-OTHH
Flight info
| Callsign | QTR1183 |
|---|---|
| Flight time | 1h 43m |
| Altitude | 41000 |
| Route | EGREP T532 KODIS Y214 RAPMA DCT LADBO T142 LAEEB |
| Aircraft | A35K/H-SDE2E3GHIJ3J4J5LM1ORWXY/LB1D1 |
Departure
| Time | 2026-05-05 22:06 |
|---|---|
| Airport | King Abdulaziz International Airport (OEJN) |
Arrival
| Time | 2026-05-05 23:50 |
|---|---|
| Airport | Hamad International Airport (OTHH) |
| Time | Latitude | Longitude | Altitude | Speed | Heading |
|---|---|---|---|---|---|
| 2026-05-05 21:33 | 21.67140 | 39.16884 | 42 ft | 0 kts | 171° |
| 2026-05-05 21:49 | 21.67154 | 39.16882 | 44 ft | 4 kts | 168° |
| 2026-05-05 21:49 | 21.67177 | 39.16876 | 42 ft | 4 kts | 170° |
| 2026-05-05 21:49 | 21.67200 | 39.16874 | 42 ft | 6 kts | 196° |
| 2026-05-05 21:50 | 21.67216 | 39.16882 | 40 ft | 6 kts | 236° |
| 2026-05-05 21:50 | 21.67225 | 39.16904 | 38 ft | 6 kts | 259° |
| 2026-05-05 21:50 | 21.67229 | 39.16930 | 37 ft | 3 kts | 257° |
| 2026-05-05 21:50 | 21.67229 | 39.16931 | 37 ft | 0 kts | 257° |
| 2026-05-05 21:54 | 21.67228 | 39.16922 | 41 ft | 3 kts | 256° |
| 2026-05-05 21:54 | 21.67221 | 39.16889 | 42 ft | 5 kts | 260° |
| 2026-05-05 21:54 | 21.67215 | 39.16843 | 42 ft | 7 kts | 265° |
| 2026-05-05 21:54 | 21.67219 | 39.16780 | 43 ft | 9 kts | 276° |
| 2026-05-05 21:55 | 21.67225 | 39.16706 | 43 ft | 7 kts | 275° |
| 2026-05-05 21:55 | 21.67230 | 39.16653 | 43 ft | 8 kts | 277° |
| 2026-05-05 21:55 | 21.67243 | 39.16580 | 42 ft | 12 kts | 287° |
| 2026-05-05 21:55 | 21.67283 | 39.16519 | 41 ft | 12 kts | 321° |
| 2026-05-05 21:56 | 21.67354 | 39.16488 | 41 ft | 7 kts | 341° |
| 2026-05-05 21:56 | 21.67402 | 39.16470 | 43 ft | 7 kts | 341° |
| 2026-05-05 21:56 | 21.67445 | 39.16454 | 45 ft | 5 kts | 340° |
| 2026-05-05 21:56 | 21.67473 | 39.16443 | 47 ft | 4 kts | 340° |
| 2026-05-05 21:57 | 21.67505 | 39.16430 | 47 ft | 6 kts | 339° |
| 2026-05-05 21:57 | 21.67552 | 39.16407 | 45 ft | 7 kts | 316° |
| 2026-05-05 21:57 | 21.67554 | 39.16328 | 38 ft | 15 kts | 250° |
| 2026-05-05 21:57 | 21.67527 | 39.16249 | 36 ft | 8 kts | 250° |
| 2026-05-05 21:58 | 21.67510 | 39.16198 | 37 ft | 7 kts | 250° |
| 2026-05-05 21:58 | 21.67478 | 39.16162 | 37 ft | 7 kts | 199° |
| 2026-05-05 21:58 | 21.67425 | 39.16169 | 38 ft | 9 kts | 164° |
| 2026-05-05 21:58 | 21.67358 | 39.16197 | 38 ft | 11 kts | 159° |
| 2026-05-05 21:59 | 21.67283 | 39.16228 | 40 ft | 10 kts | 159° |
| 2026-05-05 21:59 | 21.67219 | 39.16255 | 42 ft | 10 kts | 159° |
| 2026-05-05 21:59 | 21.67147 | 39.16285 | 44 ft | 11 kts | 159° |
| 2026-05-05 21:59 | 21.67075 | 39.16313 | 44 ft | 12 kts | 159° |
| 2026-05-05 22:00 | 21.66986 | 39.16350 | 44 ft | 15 kts | 159° |
| 2026-05-05 22:00 | 21.66917 | 39.16376 | 46 ft | 10 kts | 160° |
| 2026-05-05 22:00 | 21.66844 | 39.16403 | 46 ft | 12 kts | 160° |
| 2026-05-05 22:00 | 21.66751 | 39.16439 | 45 ft | 16 kts | 160° |
| 2026-05-05 22:01 | 21.66713 | 39.16454 | 44 ft | 2 kts | 159° |
| 2026-05-05 22:01 | 21.66685 | 39.16466 | 43 ft | 6 kts | 159° |
| 2026-05-05 22:01 | 21.66636 | 39.16486 | 44 ft | 9 kts | 159° |
| 2026-05-05 22:01 | 21.66570 | 39.16512 | 45 ft | 11 kts | 160° |
| 2026-05-05 22:02 | 21.66486 | 39.16545 | 44 ft | 15 kts | 160° |
| 2026-05-05 22:02 | 21.66376 | 39.16589 | 41 ft | 14 kts | 159° |
| 2026-05-05 22:02 | 21.66317 | 39.16613 | 41 ft | 8 kts | 159° |
| 2026-05-05 22:02 | 21.66262 | 39.16636 | 41 ft | 7 kts | 156° |
| 2026-05-05 22:03 | 21.66212 | 39.16646 | 40 ft | 7 kts | 193° |
| 2026-05-05 22:03 | 21.66195 | 39.16630 | 40 ft | 3 kts | 233° |
| 2026-05-05 22:03 | 21.66194 | 39.16629 | 40 ft | 0 kts | 233° |
| 2026-05-05 22:04 | 21.66191 | 39.16625 | 40 ft | 3 kts | 233° |
| 2026-05-05 22:04 | 21.66173 | 39.16590 | 39 ft | 8 kts | 245° |
| 2026-05-05 22:04 | 21.66149 | 39.16525 | 39 ft | 10 kts | 248° |
| 2026-05-05 22:05 | 21.66159 | 39.16479 | 38 ft | 7 kts | 306° |
| 2026-05-05 22:05 | 21.66207 | 39.16452 | 38 ft | 9 kts | 339° |
| 2026-05-05 22:05 | 21.66223 | 39.16446 | 38 ft | 0 kts | 340° |
| 2026-05-05 22:05 | 21.66227 | 39.16444 | 38 ft | 4 kts | 340° |
| 2026-05-05 22:06 | 21.66414 | 39.16370 | 42 ft | 64 kts | 340° |
| 2026-05-05 22:06 | 21.67053 | 39.16119 | 43 ft | 131 kts | 339° |
| 2026-05-05 22:06 | 21.68083 | 39.15704 | 164 ft | 178 kts | 340° |
| 2026-05-05 22:06 | 21.69317 | 39.15221 | 677 ft | 199 kts | 342° |
| 2026-05-05 22:07 | 21.70666 | 39.14730 | 1428 ft | 210 kts | 343° |
| 2026-05-05 22:07 | 21.72054 | 39.14208 | 2072 ft | 216 kts | 342° |
| 2026-05-05 22:07 | 21.73504 | 39.13630 | 2377 ft | 236 kts | 340° |
| 2026-05-05 22:07 | 21.75105 | 39.12980 | 2723 ft | 252 kts | 340° |
| 2026-05-05 22:08 | 21.76727 | 39.12328 | 3574 ft | 244 kts | 339° |
| 2026-05-05 22:08 | 21.78325 | 39.11721 | 4371 ft | 243 kts | 343° |
| 2026-05-05 22:08 | 21.80058 | 39.11481 | 4686 ft | 261 kts | 2° |
| 2026-05-05 22:08 | 21.81802 | 39.12033 | 5157 ft | 273 kts | 28° |
| 2026-05-05 22:09 | 21.83274 | 39.13354 | 5731 ft | 279 kts | 43° |
| 2026-05-05 22:09 | 21.84645 | 39.14874 | 6262 ft | 286 kts | 44° |
| 2026-05-05 22:09 | 21.86033 | 39.16431 | 6803 ft | 290 kts | 45° |
| 2026-05-05 22:09 | 21.87445 | 39.18004 | 7378 ft | 294 kts | 45° |
| 2026-05-05 22:10 | 21.88877 | 39.19591 | 7952 ft | 297 kts | 45° |
| 2026-05-05 22:10 | 21.90326 | 39.21194 | 8538 ft | 301 kts | 45° |
| 2026-05-05 22:10 | 21.91796 | 39.22818 | 9127 ft | 303 kts | 46° |
| 2026-05-05 22:10 | 21.93264 | 39.24439 | 9750 ft | 305 kts | 46° |
| 2026-05-05 22:11 | 21.94766 | 39.26097 | 10263 ft | 311 kts | 46° |
| 2026-05-05 22:11 | 21.96311 | 39.27804 | 10525 ft | 326 kts | 46° |
| 2026-05-05 22:11 | 21.97929 | 39.29592 | 10771 ft | 340 kts | 46° |
| 2026-05-05 22:11 | 21.99614 | 39.31453 | 11004 ft | 354 kts | 46° |
| 2026-05-05 22:12 | 22.01362 | 39.33385 | 11226 ft | 367 kts | 46° |
| 2026-05-05 22:12 | 22.03171 | 39.35384 | 11441 ft | 378 kts | 46° |
| 2026-05-05 22:12 | 22.05032 | 39.37442 | 11722 ft | 387 kts | 46° |
| 2026-05-05 22:12 | 22.06926 | 39.39536 | 12089 ft | 392 kts | 46° |
| 2026-05-05 22:13 | 22.08838 | 39.41650 | 12492 ft | 396 kts | 46° |
| 2026-05-05 22:13 | 22.10770 | 39.43789 | 12911 ft | 400 kts | 47° |
| 2026-05-05 22:13 | 22.12712 | 39.45939 | 13340 ft | 403 kts | 47° |
| 2026-05-05 22:13 | 22.14681 | 39.48119 | 13761 ft | 406 kts | 47° |
| 2026-05-05 22:14 | 22.16656 | 39.50308 | 14154 ft | 409 kts | 47° |
| 2026-05-05 22:14 | 22.18645 | 39.52513 | 14546 ft | 411 kts | 47° |
| 2026-05-05 22:14 | 22.20639 | 39.54726 | 14969 ft | 413 kts | 47° |
| 2026-05-05 22:14 | 22.22653 | 39.56961 | 15381 ft | 416 kts | 46° |
| 2026-05-05 22:15 | 22.24673 | 39.59204 | 15800 ft | 418 kts | 46° |
| 2026-05-05 22:15 | 22.26704 | 39.61460 | 16215 ft | 421 kts | 46° |
| 2026-05-05 22:15 | 22.28757 | 39.63741 | 16635 ft | 424 kts | 46° |
| 2026-05-05 22:15 | 22.30819 | 39.66034 | 17040 ft | 427 kts | 46° |
| 2026-05-05 22:16 | 22.32894 | 39.68341 | 17451 ft | 430 kts | 46° |
| 2026-05-05 22:16 | 22.34982 | 39.70664 | 17870 ft | 432 kts | 46° |
| 2026-05-05 22:16 | 22.37085 | 39.73005 | 18298 ft | 435 kts | 46° |
| 2026-05-05 22:16 | 22.39195 | 39.75354 | 18648 ft | 437 kts | 46° |
| 2026-05-05 22:17 | 22.41320 | 39.77721 | 19012 ft | 440 kts | 46° |
| 2026-05-05 22:17 | 22.43453 | 39.80101 | 19363 ft | 442 kts | 46° |
| 2026-05-05 22:17 | 22.45600 | 39.82495 | 19728 ft | 445 kts | 46° |
| 2026-05-05 22:17 | 22.47770 | 39.84897 | 20055 ft | 448 kts | 45° |
| 2026-05-05 22:18 | 22.50050 | 39.87198 | 20373 ft | 451 kts | 41° |
| 2026-05-05 22:18 | 22.52425 | 39.89427 | 20732 ft | 453 kts | 40° |
| 2026-05-05 22:18 | 22.54841 | 39.91642 | 21062 ft | 456 kts | 40° |
| 2026-05-05 22:18 | 22.57266 | 39.93870 | 21391 ft | 459 kts | 40° |
| 2026-05-05 22:19 | 22.59692 | 39.96126 | 21726 ft | 461 kts | 40° |
| 2026-05-05 22:19 | 22.62123 | 39.98414 | 22037 ft | 464 kts | 41° |
| 2026-05-05 22:19 | 22.64558 | 40.00728 | 22340 ft | 467 kts | 41° |
| 2026-05-05 22:19 | 22.66999 | 40.03060 | 22656 ft | 469 kts | 41° |
| 2026-05-05 22:20 | 22.69447 | 40.05407 | 22952 ft | 472 kts | 41° |
| 2026-05-05 22:20 | 22.71917 | 40.07776 | 23252 ft | 474 kts | 41° |
| 2026-05-05 22:20 | 22.74382 | 40.10141 | 23544 ft | 477 kts | 41° |
| 2026-05-05 22:20 | 22.76886 | 40.12544 | 23794 ft | 480 kts | 41° |
| 2026-05-05 22:21 | 22.79356 | 40.14913 | 24019 ft | 483 kts | 40° |
| 2026-05-05 22:21 | 22.81875 | 40.17330 | 24221 ft | 485 kts | 40° |
| 2026-05-05 22:21 | 22.84414 | 40.19768 | 24452 ft | 488 kts | 40° |
| 2026-05-05 22:21 | 22.86960 | 40.22213 | 24683 ft | 491 kts | 40° |
| 2026-05-05 22:22 | 22.89525 | 40.24678 | 24903 ft | 493 kts | 40° |
| 2026-05-05 22:22 | 22.92093 | 40.27147 | 25142 ft | 495 kts | 40° |
| 2026-05-05 22:22 | 22.94678 | 40.29633 | 25344 ft | 498 kts | 40° |
| 2026-05-05 22:22 | 22.97279 | 40.32137 | 25554 ft | 501 kts | 40° |
| 2026-05-05 22:23 | 22.99891 | 40.34652 | 25789 ft | 503 kts | 40° |
| 2026-05-05 22:23 | 23.02514 | 40.37180 | 26028 ft | 505 kts | 40° |
| 2026-05-05 22:23 | 23.05145 | 40.39717 | 26244 ft | 508 kts | 40° |
| 2026-05-05 22:23 | 23.07795 | 40.42273 | 26471 ft | 510 kts | 40° |
| 2026-05-05 22:24 | 23.10457 | 40.44841 | 26709 ft | 513 kts | 40° |
| 2026-05-05 22:24 | 23.13129 | 40.47422 | 26955 ft | 515 kts | 40° |
| 2026-05-05 22:24 | 23.15814 | 40.50017 | 27181 ft | 518 kts | 40° |
| 2026-05-05 22:24 | 23.18513 | 40.52626 | 27411 ft | 520 kts | 40° |
| 2026-05-05 22:25 | 23.21216 | 40.55240 | 27748 ft | 521 kts | 39° |
| 2026-05-05 22:25 | 23.23887 | 40.57883 | 28163 ft | 520 kts | 43° |
| 2026-05-05 22:25 | 23.26315 | 40.60821 | 28460 ft | 524 kts | 51° |
| 2026-05-05 22:25 | 23.28347 | 40.64123 | 28725 ft | 527 kts | 60° |
| 2026-05-05 22:26 | 23.29927 | 40.67728 | 28990 ft | 530 kts | 68° |
| 2026-05-05 22:26 | 23.31314 | 40.71449 | 29251 ft | 532 kts | 70° |
| 2026-05-05 22:26 | 23.32628 | 40.75216 | 29521 ft | 535 kts | 70° |
| 2026-05-05 22:26 | 23.33920 | 40.79026 | 29791 ft | 538 kts | 71° |
| 2026-05-05 22:27 | 23.35213 | 40.82859 | 30058 ft | 541 kts | 71° |
| 2026-05-05 22:27 | 23.36077 | 40.85409 | 30222 ft | 543 kts | 70° |
| 2026-05-05 22:27 | 23.37395 | 40.89275 | 30467 ft | 546 kts | 70° |
| 2026-05-05 22:27 | 23.38724 | 40.93145 | 30706 ft | 548 kts | 70° |
| 2026-05-05 22:28 | 23.40524 | 40.98361 | 31060 ft | 552 kts | 70° |
| 2026-05-05 22:28 | 23.41421 | 41.00956 | 31230 ft | 553 kts | 70° |
| 2026-05-05 22:28 | 23.42781 | 41.04888 | 31486 ft | 556 kts | 70° |
| 2026-05-05 22:28 | 23.44139 | 41.08819 | 31699 ft | 558 kts | 70° |
| 2026-05-05 22:29 | 23.45509 | 41.12787 | 31949 ft | 560 kts | 70° |
| 2026-05-05 22:29 | 23.46880 | 41.16766 | 32187 ft | 563 kts | 70° |
| 2026-05-05 22:29 | 23.48259 | 41.20770 | 32404 ft | 565 kts | 70° |
| 2026-05-05 22:29 | 23.49639 | 41.24786 | 32612 ft | 567 kts | 70° |
| 2026-05-05 22:30 | 23.51023 | 41.28817 | 32833 ft | 570 kts | 70° |
| 2026-05-05 22:30 | 23.52410 | 41.32858 | 33047 ft | 572 kts | 70° |
| 2026-05-05 22:30 | 23.53808 | 41.36937 | 33242 ft | 574 kts | 70° |
| 2026-05-05 22:30 | 23.55205 | 41.41015 | 33458 ft | 576 kts | 70° |
| 2026-05-05 22:31 | 23.56605 | 41.45108 | 33772 ft | 576 kts | 70° |
| 2026-05-05 22:31 | 23.58001 | 41.49191 | 34092 ft | 575 kts | 70° |
| 2026-05-05 22:31 | 23.59395 | 41.53273 | 34390 ft | 575 kts | 70° |
| 2026-05-05 22:31 | 23.60786 | 41.57350 | 34711 ft | 574 kts | 70° |
| 2026-05-05 22:32 | 23.62177 | 41.61430 | 35042 ft | 573 kts | 70° |
| 2026-05-05 22:32 | 23.63560 | 41.65491 | 35374 ft | 572 kts | 70° |
| 2026-05-05 22:32 | 23.64941 | 41.69552 | 35707 ft | 571 kts | 70° |
| 2026-05-05 22:32 | 23.66317 | 41.73601 | 36029 ft | 570 kts | 71° |
| 2026-05-05 22:33 | 23.67699 | 41.77680 | 36192 ft | 574 kts | 71° |
| 2026-05-05 22:33 | 23.69042 | 41.81776 | 36490 ft | 572 kts | 72° |
| 2026-05-05 22:33 | 23.70326 | 41.85819 | 36979 ft | 568 kts | 72° |
| 2026-05-05 22:33 | 23.71601 | 41.89885 | 37408 ft | 566 kts | 72° |
| 2026-05-05 22:34 | 23.72870 | 41.93938 | 37779 ft | 564 kts | 72° |
| 2026-05-05 22:34 | 23.74141 | 41.97984 | 38134 ft | 563 kts | 72° |
| 2026-05-05 22:34 | 23.75424 | 42.02019 | 38473 ft | 563 kts | 72° |
| 2026-05-05 22:34 | 23.76769 | 42.06037 | 38775 ft | 562 kts | 71° |
| 2026-05-05 22:35 | 23.78148 | 42.10030 | 39063 ft | 561 kts | 70° |
| 2026-05-05 22:35 | 23.79532 | 42.14002 | 39346 ft | 560 kts | 70° |
| 2026-05-05 22:35 | 23.80914 | 42.17977 | 39624 ft | 559 kts | 71° |
| 2026-05-05 22:35 | 23.82284 | 42.21944 | 39897 ft | 558 kts | 71° |
| 2026-05-05 22:36 | 23.83642 | 42.25902 | 40162 ft | 557 kts | 71° |
| 2026-05-05 22:36 | 23.84994 | 42.29866 | 40421 ft | 556 kts | 71° |
| 2026-05-05 22:36 | 23.86337 | 42.33815 | 40664 ft | 555 kts | 71° |
| 2026-05-05 22:36 | 23.87678 | 42.37767 | 40906 ft | 554 kts | 71° |
| 2026-05-05 22:37 | 23.89018 | 42.41720 | 40995 ft | 555 kts | 71° |
| 2026-05-05 22:37 | 23.91688 | 42.49600 | 41001 ft | 552 kts | 72° |
| 2026-05-05 22:38 | 23.94345 | 42.57465 | 40997 ft | 552 kts | 72° |
| 2026-05-05 22:38 | 23.96999 | 42.65334 | 41001 ft | 552 kts | 72° |
| 2026-05-05 22:39 | 23.99653 | 42.73213 | 40993 ft | 552 kts | 72° |
| 2026-05-05 22:39 | 24.02279 | 42.81100 | 40987 ft | 551 kts | 75° |
| 2026-05-05 22:40 | 24.03593 | 42.89260 | 40994 ft | 540 kts | 94° |
| 2026-05-05 22:40 | 24.03359 | 42.93267 | 40988 ft | 532 kts | 105° |
| 2026-05-05 22:40 | 24.02569 | 42.97241 | 40994 ft | 526 kts | 111° |
| 2026-05-05 22:41 | 24.00557 | 43.04918 | 40992 ft | 525 kts | 113° |
| 2026-05-05 22:41 | 23.98428 | 43.12485 | 40991 ft | 525 kts | 114° |
| 2026-05-05 22:42 | 23.96302 | 43.20125 | 40995 ft | 525 kts | 113° |
| 2026-05-05 22:42 | 23.94206 | 43.27773 | 40989 ft | 525 kts | 113° |
| 2026-05-05 22:43 | 23.92115 | 43.35433 | 40989 ft | 525 kts | 112° |
| 2026-05-05 22:43 | 23.90023 | 43.43079 | 40985 ft | 525 kts | 112° |
| 2026-05-05 22:44 | 23.87922 | 43.50733 | 40977 ft | 525 kts | 112° |
| 2026-05-05 22:44 | 23.85822 | 43.58368 | 40973 ft | 525 kts | 112° |
| 2026-05-05 22:45 | 23.83717 | 43.66002 | 40966 ft | 525 kts | 112° |
| 2026-05-05 22:45 | 23.81610 | 43.73629 | 40955 ft | 524 kts | 112° |
| 2026-05-05 22:46 | 23.79502 | 43.81247 | 40953 ft | 523 kts | 112° |
| 2026-05-05 22:46 | 23.77580 | 43.88919 | 40945 ft | 529 kts | 104° |
| 2026-05-05 22:47 | 23.76741 | 43.96926 | 40941 ft | 532 kts | 99° |
| 2026-05-05 22:47 | 23.76146 | 44.04986 | 40937 ft | 534 kts | 99° |
| 2026-05-05 22:48 | 23.75579 | 44.13064 | 40933 ft | 535 kts | 99° |
| 2026-05-05 22:48 | 23.74988 | 44.21154 | 40932 ft | 534 kts | 99° |
| 2026-05-05 22:49 | 23.74383 | 44.29181 | 40938 ft | 534 kts | 99° |
| 2026-05-05 22:49 | 23.73762 | 44.37307 | 40918 ft | 533 kts | 99° |
| 2026-05-05 22:50 | 23.73142 | 44.45369 | 40924 ft | 533 kts | 99° |
| 2026-05-05 22:50 | 23.72519 | 44.53424 | 40929 ft | 532 kts | 99° |
| 2026-05-05 22:51 | 23.71893 | 44.61461 | 40932 ft | 532 kts | 99° |
| 2026-05-05 22:51 | 23.71268 | 44.69440 | 40917 ft | 531 kts | 99° |
| 2026-05-05 22:52 | 23.70634 | 44.77471 | 40926 ft | 531 kts | 99° |
| 2026-05-05 22:52 | 23.69997 | 44.85501 | 40925 ft | 531 kts | 99° |
| 2026-05-05 22:53 | 23.69360 | 44.93517 | 40921 ft | 530 kts | 99° |
| 2026-05-05 22:53 | 23.68714 | 45.01521 | 40913 ft | 530 kts | 99° |
| 2026-05-05 22:54 | 23.68064 | 45.09521 | 40920 ft | 529 kts | 99° |
| 2026-05-05 22:54 | 23.67410 | 45.17528 | 40910 ft | 529 kts | 99° |
| 2026-05-05 22:55 | 23.66751 | 45.25518 | 40911 ft | 529 kts | 99° |
| 2026-05-05 22:55 | 23.66092 | 45.33507 | 40904 ft | 529 kts | 99° |
| 2026-05-05 22:56 | 23.65430 | 45.41488 | 40899 ft | 529 kts | 99° |
| 2026-05-05 22:56 | 23.64764 | 45.49470 | 40894 ft | 528 kts | 99° |
| 2026-05-05 22:57 | 23.64092 | 45.57455 | 40882 ft | 528 kts | 99° |
| 2026-05-05 22:57 | 23.63419 | 45.65416 | 40876 ft | 527 kts | 99° |
| 2026-05-05 22:58 | 23.62740 | 45.73381 | 40871 ft | 527 kts | 99° |
| 2026-05-05 22:58 | 23.62057 | 45.81330 | 40870 ft | 527 kts | 99° |
| 2026-05-05 22:59 | 23.61370 | 45.89283 | 40870 ft | 526 kts | 99° |
| 2026-05-05 22:59 | 23.60681 | 45.97221 | 40870 ft | 526 kts | 99° |
| 2026-05-05 23:00 | 23.59639 | 46.09131 | 40880 ft | 526 kts | 99° |
| 2026-05-05 23:00 | 23.58940 | 46.17061 | 40886 ft | 526 kts | 99° |
| 2026-05-05 23:01 | 23.58238 | 46.24995 | 40885 ft | 525 kts | 99° |
| 2026-05-05 23:01 | 23.57532 | 46.32910 | 40894 ft | 525 kts | 99° |
| 2026-05-05 23:02 | 23.56821 | 46.40834 | 40899 ft | 525 kts | 99° |
| 2026-05-05 23:02 | 23.56106 | 46.48757 | 40903 ft | 524 kts | 99° |
| 2026-05-05 23:03 | 23.55387 | 46.56657 | 40890 ft | 524 kts | 99° |
| 2026-05-05 23:03 | 23.54665 | 46.64566 | 40884 ft | 524 kts | 99° |
| 2026-05-05 23:04 | 23.53943 | 46.72470 | 40875 ft | 524 kts | 99° |
| 2026-05-05 23:04 | 23.53216 | 46.80360 | 40864 ft | 524 kts | 99° |
| 2026-05-05 23:05 | 23.52483 | 46.88255 | 40855 ft | 523 kts | 99° |
| 2026-05-05 23:05 | 23.51747 | 46.96139 | 40841 ft | 523 kts | 99° |
| 2026-05-05 23:06 | 23.51007 | 47.04022 | 40837 ft | 522 kts | 99° |
| 2026-05-05 23:06 | 23.50271 | 47.11834 | 40833 ft | 522 kts | 99° |
| 2026-05-05 23:07 | 23.49525 | 47.19700 | 40837 ft | 522 kts | 99° |
| 2026-05-05 23:07 | 23.48775 | 47.27558 | 40830 ft | 522 kts | 99° |
| 2026-05-05 23:08 | 23.48021 | 47.35422 | 40819 ft | 521 kts | 99° |
| 2026-05-05 23:08 | 23.47265 | 47.43269 | 40823 ft | 521 kts | 99° |
| 2026-05-05 23:09 | 23.46505 | 47.51116 | 40829 ft | 521 kts | 99° |
| 2026-05-05 23:09 | 23.45739 | 47.58951 | 40822 ft | 521 kts | 99° |
| 2026-05-05 23:10 | 23.44973 | 47.66792 | 40815 ft | 520 kts | 99° |
| 2026-05-05 23:10 | 23.44204 | 47.74624 | 40817 ft | 520 kts | 99° |
| 2026-05-05 23:11 | 23.43431 | 47.82452 | 40815 ft | 520 kts | 99° |
| 2026-05-05 23:11 | 23.42654 | 47.90277 | 40812 ft | 520 kts | 99° |
| 2026-05-05 23:12 | 23.41871 | 47.98107 | 40810 ft | 520 kts | 99° |
| 2026-05-05 23:12 | 23.41085 | 48.05935 | 40805 ft | 520 kts | 99° |
| 2026-05-05 23:13 | 23.40294 | 48.13770 | 40804 ft | 521 kts | 99° |
| 2026-05-05 23:13 | 23.39608 | 48.20545 | 40800 ft | 521 kts | 99° |
| 2026-05-05 23:14 | 23.38946 | 48.27048 | 40798 ft | 522 kts | 99° |
| 2026-05-05 23:14 | 23.38864 | 48.34942 | 40795 ft | 527 kts | 80° |
| 2026-05-05 23:15 | 23.41397 | 48.43804 | 40799 ft | 529 kts | 70° |
| 2026-05-05 23:15 | 23.43566 | 48.50101 | 40799 ft | 530 kts | 70° |
| 2026-05-05 23:16 | 23.46184 | 48.57611 | 40784 ft | 531 kts | 70° |
| 2026-05-05 23:16 | 23.48765 | 48.65145 | 40789 ft | 531 kts | 70° |
| 2026-05-05 23:17 | 23.51318 | 48.72692 | 40796 ft | 531 kts | 70° |
| 2026-05-05 23:17 | 23.53861 | 48.80242 | 40777 ft | 531 kts | 70° |
| 2026-05-05 23:18 | 23.56401 | 48.87795 | 40779 ft | 531 kts | 70° |
| 2026-05-05 23:18 | 23.58946 | 48.95370 | 40793 ft | 531 kts | 70° |
| 2026-05-05 23:19 | 23.61483 | 49.02935 | 40790 ft | 531 kts | 70° |
| 2026-05-05 23:19 | 23.64017 | 49.10504 | 40775 ft | 532 kts | 70° |
| 2026-05-05 23:20 | 23.66530 | 49.18027 | 40788 ft | 532 kts | 70° |
| 2026-05-05 23:20 | 23.69058 | 49.25605 | 40786 ft | 531 kts | 70° |
| 2026-05-05 23:21 | 23.71582 | 49.33187 | 40768 ft | 531 kts | 70° |
| 2026-05-05 23:21 | 23.74100 | 49.40765 | 40784 ft | 531 kts | 70° |
| 2026-05-05 23:22 | 23.76613 | 49.48342 | 40779 ft | 531 kts | 70° |
| 2026-05-05 23:22 | 23.79124 | 49.55925 | 40768 ft | 531 kts | 70° |
| 2026-05-05 23:23 | 23.81630 | 49.63510 | 40779 ft | 531 kts | 70° |
| 2026-05-05 23:23 | 23.84134 | 49.71102 | 40779 ft | 531 kts | 70° |
| 2026-05-05 23:24 | 23.86631 | 49.78687 | 40784 ft | 531 kts | 71° |
| 2026-05-05 23:24 | 23.89130 | 49.86290 | 40767 ft | 532 kts | 71° |
| 2026-05-05 23:25 | 23.91626 | 49.93901 | 40781 ft | 532 kts | 71° |
| 2026-05-05 23:25 | 23.94115 | 50.01505 | 40720 ft | 531 kts | 71° |
| 2026-05-05 23:26 | 23.95355 | 50.05297 | 40478 ft | 531 kts | 71° |
| 2026-05-05 23:26 | 23.96600 | 50.09111 | 40236 ft | 532 kts | 71° |
| 2026-05-05 23:26 | 23.97843 | 50.12921 | 39989 ft | 533 kts | 71° |
| 2026-05-05 23:26 | 23.99089 | 50.16744 | 39714 ft | 533 kts | 71° |
| 2026-05-05 23:27 | 24.00332 | 50.20559 | 39133 ft | 533 kts | 71° |
| 2026-05-05 23:27 | 24.01577 | 50.24387 | 38510 ft | 535 kts | 70° |
| 2026-05-05 23:27 | 24.02824 | 50.28224 | 37784 ft | 536 kts | 70° |
| 2026-05-05 23:27 | 24.04074 | 50.32073 | 37098 ft | 537 kts | 70° |
| 2026-05-05 23:28 | 24.05323 | 50.35923 | 36420 ft | 538 kts | 70° |
| 2026-05-05 23:28 | 24.06572 | 50.39778 | 35729 ft | 539 kts | 70° |
| 2026-05-05 23:28 | 24.07826 | 50.43651 | 35008 ft | 541 kts | 70° |
| 2026-05-05 23:28 | 24.09083 | 50.47538 | 34245 ft | 544 kts | 70° |
| 2026-05-05 23:29 | 24.10349 | 50.51455 | 33359 ft | 548 kts | 70° |
| 2026-05-05 23:29 | 24.11606 | 50.55347 | 32531 ft | 550 kts | 70° |
| 2026-05-05 23:29 | 24.12874 | 50.59280 | 31960 ft | 545 kts | 70° |
| 2026-05-05 23:29 | 24.14145 | 50.63226 | 31381 ft | 541 kts | 70° |
| 2026-05-05 23:30 | 24.15374 | 50.67045 | 30807 ft | 538 kts | 70° |
| 2026-05-05 23:30 | 24.16613 | 50.70897 | 30217 ft | 534 kts | 70° |
| 2026-05-05 23:30 | 24.17844 | 50.74731 | 29587 ft | 531 kts | 70° |
| 2026-05-05 23:30 | 24.19064 | 50.78531 | 28977 ft | 527 kts | 70° |
| 2026-05-05 23:31 | 24.20271 | 50.82296 | 28404 ft | 522 kts | 70° |
| 2026-05-05 23:31 | 24.21466 | 50.86025 | 27822 ft | 517 kts | 70° |
| 2026-05-05 23:31 | 24.22650 | 50.89726 | 27268 ft | 512 kts | 70° |
| 2026-05-05 23:31 | 24.23818 | 50.93378 | 26694 ft | 503 kts | 70° |
| 2026-05-05 23:32 | 24.24944 | 50.96908 | 26151 ft | 483 kts | 70° |
| 2026-05-05 23:32 | 24.26049 | 51.00369 | 25610 ft | 479 kts | 70° |
| 2026-05-05 23:32 | 24.27145 | 51.03808 | 25069 ft | 477 kts | 70° |
| 2026-05-05 23:32 | 24.28185 | 51.07073 | 24533 ft | 474 kts | 70° |
| 2026-05-05 23:33 | 24.29268 | 51.10472 | 23993 ft | 471 kts | 70° |
| 2026-05-05 23:33 | 24.30342 | 51.13851 | 23435 ft | 468 kts | 70° |
| 2026-05-05 23:33 | 24.31409 | 51.17207 | 22782 ft | 460 kts | 70° |
| 2026-05-05 23:33 | 24.32438 | 51.20418 | 22219 ft | 434 kts | 69° |
| 2026-05-05 23:34 | 24.33760 | 51.23284 | 21735 ft | 413 kts | 54° |
| 2026-05-05 23:34 | 24.35563 | 51.25758 | 21170 ft | 421 kts | 46° |
| 2026-05-05 23:34 | 24.37602 | 51.28101 | 20644 ft | 427 kts | 43° |
| 2026-05-05 23:34 | 24.39749 | 51.30366 | 19891 ft | 429 kts | 41° |
| 2026-05-05 23:35 | 24.41950 | 51.32593 | 19164 ft | 430 kts | 41° |
| 2026-05-05 23:35 | 24.44126 | 51.34771 | 18752 ft | 411 kts | 41° |
| 2026-05-05 23:35 | 24.46163 | 51.36823 | 18317 ft | 385 kts | 41° |
| 2026-05-05 23:35 | 24.48072 | 51.38763 | 17788 ft | 366 kts | 41° |
| 2026-05-05 23:36 | 24.49905 | 51.40640 | 17003 ft | 355 kts | 41° |
| 2026-05-05 23:36 | 24.51690 | 51.42464 | 16190 ft | 346 kts | 40° |
| 2026-05-05 23:36 | 24.53616 | 51.43933 | 15632 ft | 329 kts | 27° |
| 2026-05-05 23:36 | 24.55613 | 51.45115 | 15093 ft | 327 kts | 25° |
| 2026-05-05 23:37 | 24.57628 | 51.46240 | 14768 ft | 329 kts | 25° |
| 2026-05-05 23:37 | 24.59693 | 51.47375 | 14368 ft | 326 kts | 25° |
| 2026-05-05 23:37 | 24.61691 | 51.48463 | 13967 ft | 324 kts | 24° |
| 2026-05-05 23:37 | 24.63702 | 51.49555 | 13583 ft | 321 kts | 24° |
| 2026-05-05 23:38 | 24.65696 | 51.50635 | 13125 ft | 315 kts | 24° |
| 2026-05-05 23:38 | 24.67633 | 51.51684 | 12422 ft | 306 kts | 24° |
| 2026-05-05 23:38 | 24.69498 | 51.52702 | 11834 ft | 295 kts | 25° |
| 2026-05-05 23:38 | 24.71317 | 51.53749 | 11307 ft | 294 kts | 26° |
| 2026-05-05 23:39 | 24.73119 | 51.54800 | 10834 ft | 293 kts | 26° |
| 2026-05-05 23:39 | 24.74919 | 51.55847 | 10372 ft | 291 kts | 26° |
| 2026-05-05 23:39 | 24.76713 | 51.56887 | 10125 ft | 292 kts | 26° |
| 2026-05-05 23:39 | 24.78497 | 51.57920 | 9744 ft | 289 kts | 25° |
| 2026-05-05 23:40 | 24.80271 | 51.58946 | 9260 ft | 286 kts | 26° |
| 2026-05-05 23:40 | 24.81996 | 51.59945 | 8766 ft | 273 kts | 26° |
| 2026-05-05 23:40 | 24.83642 | 51.60898 | 8315 ft | 261 kts | 26° |
| 2026-05-05 23:40 | 24.85213 | 51.61807 | 7880 ft | 251 kts | 26° |
| 2026-05-05 23:41 | 24.86728 | 51.62684 | 7471 ft | 241 kts | 26° |
| 2026-05-05 23:41 | 24.88182 | 51.63525 | 7083 ft | 232 kts | 26° |
| 2026-05-05 23:41 | 24.89582 | 51.64335 | 6731 ft | 222 kts | 26° |
| 2026-05-05 23:41 | 24.90932 | 51.65116 | 6380 ft | 218 kts | 26° |
| 2026-05-05 23:42 | 24.92289 | 51.65901 | 6026 ft | 220 kts | 26° |
| 2026-05-05 23:42 | 24.93645 | 51.66685 | 5636 ft | 218 kts | 27° |
| 2026-05-05 23:42 | 24.94958 | 51.67446 | 5245 ft | 209 kts | 27° |
| 2026-05-05 23:42 | 24.96222 | 51.68178 | 4875 ft | 202 kts | 27° |
| 2026-05-05 23:43 | 24.97440 | 51.68884 | 4534 ft | 194 kts | 27° |
| 2026-05-05 23:43 | 24.98622 | 51.69570 | 4176 ft | 192 kts | 28° |
| 2026-05-05 23:43 | 24.99806 | 51.70256 | 3844 ft | 193 kts | 28° |
| 2026-05-05 23:43 | 25.00999 | 51.70948 | 3517 ft | 194 kts | 28° |
| 2026-05-05 23:44 | 25.02198 | 51.71642 | 3189 ft | 195 kts | 28° |
| 2026-05-05 23:44 | 25.03470 | 51.72022 | 3014 ft | 188 kts | 0° |
| 2026-05-05 23:44 | 25.04719 | 51.71788 | 2996 ft | 188 kts | 346° |
| 2026-05-05 23:44 | 25.05951 | 51.71299 | 2991 ft | 189 kts | 340° |
| 2026-05-05 23:45 | 25.07171 | 51.70763 | 2990 ft | 189 kts | 341° |
| 2026-05-05 23:45 | 25.08392 | 51.70222 | 2988 ft | 189 kts | 341° |
| 2026-05-05 23:45 | 25.09606 | 51.69690 | 2975 ft | 182 kts | 341° |
| 2026-05-05 23:45 | 25.10740 | 51.69197 | 2933 ft | 175 kts | 341° |
| 2026-05-05 23:46 | 25.11883 | 51.68705 | 2737 ft | 174 kts | 341° |
| 2026-05-05 23:46 | 25.13003 | 51.68213 | 2507 ft | 173 kts | 341° |
| 2026-05-05 23:46 | 25.14089 | 51.67732 | 2278 ft | 168 kts | 341° |
| 2026-05-05 23:46 | 25.15137 | 51.67268 | 2073 ft | 157 kts | 341° |
| 2026-05-05 23:47 | 25.16133 | 51.66829 | 1875 ft | 148 kts | 341° |
| 2026-05-05 23:47 | 25.17076 | 51.66413 | 1697 ft | 146 kts | 341° |
| 2026-05-05 23:47 | 25.18016 | 51.65999 | 1526 ft | 146 kts | 341° |
| 2026-05-05 23:47 | 25.18952 | 51.65586 | 1340 ft | 146 kts | 341° |
| 2026-05-05 23:48 | 25.19908 | 51.65164 | 1151 ft | 146 kts | 340° |
| 2026-05-05 23:48 | 25.20855 | 51.64744 | 940 ft | 146 kts | 340° |
| 2026-05-05 23:48 | 25.21775 | 51.64334 | 757 ft | 143 kts | 340° |
| 2026-05-05 23:48 | 25.22704 | 51.63935 | 567 ft | 143 kts | 340° |
| 2026-05-05 23:49 | 25.23633 | 51.63528 | 390 ft | 144 kts | 340° |
| 2026-05-05 23:49 | 25.24562 | 51.63112 | 222 ft | 143 kts | 340° |
| 2026-05-05 23:49 | 25.25492 | 51.62712 | 69 ft | 144 kts | 340° |
| 2026-05-05 23:49 | 25.26396 | 51.62320 | 29 ft | 122 kts | 338° |
| 2026-05-05 23:50 | 25.26985 | 51.62061 | 28 ft | 60 kts | 339° |
| 2026-05-05 23:50 | 25.27160 | 51.61982 | 28 ft | 8 kts | 338° |
| 2026-05-05 23:50 | 25.27217 | 51.61957 | 28 ft | 10 kts | 338° |
| 2026-05-05 23:50 | 25.27289 | 51.61918 | 28 ft | 13 kts | 332° |
| 2026-05-05 23:51 | 25.27366 | 51.61857 | 28 ft | 12 kts | 319° |
| 2026-05-05 23:51 | 25.27420 | 51.61797 | 29 ft | 11 kts | 310° |
| 2026-05-05 23:51 | 25.27459 | 51.61738 | 29 ft | 6 kts | 295° |
| 2026-05-05 23:51 | 25.27450 | 51.61688 | 29 ft | 8 kts | 231° |
| 2026-05-05 23:52 | 25.27394 | 51.61677 | 28 ft | 10 kts | 167° |
| 2026-05-05 23:52 | 25.27326 | 51.61705 | 28 ft | 10 kts | 158° |
| 2026-05-05 23:52 | 25.27248 | 51.61740 | 28 ft | 14 kts | 158° |
| 2026-05-05 23:52 | 25.27181 | 51.61770 | 28 ft | 11 kts | 158° |
| 2026-05-05 23:53 | 25.27109 | 51.61759 | 28 ft | 12 kts | 225° |
| 2026-05-05 23:53 | 25.27069 | 51.61670 | 28 ft | 14 kts | 249° |
| 2026-05-05 23:53 | 25.27037 | 51.61581 | 28 ft | 12 kts | 248° |
| 2026-05-05 23:53 | 25.27006 | 51.61497 | 28 ft | 13 kts | 245° |
| 2026-05-05 23:54 | 25.26932 | 51.61436 | 28 ft | 15 kts | 201° |
| 2026-05-05 23:54 | 25.26839 | 51.61399 | 28 ft | 11 kts | 210° |
| 2026-05-05 23:54 | 25.26788 | 51.61368 | 28 ft | 9 kts | 206° |
| 2026-05-05 23:54 | 25.26718 | 51.61338 | 28 ft | 12 kts | 191° |
| 2026-05-05 23:55 | 25.26653 | 51.61352 | 28 ft | 10 kts | 158° |
| 2026-05-05 23:55 | 25.26585 | 51.61382 | 28 ft | 11 kts | 158° |
| 2026-05-05 23:55 | 25.26521 | 51.61397 | 28 ft | 8 kts | 197° |
| 2026-05-05 23:55 | 25.26487 | 51.61350 | 28 ft | 7 kts | 247° |
| 2026-05-05 23:56 | 25.26482 | 51.61335 | 28 ft | 2 kts | 248° |
| 2026-05-05 23:56 | 25.26478 | 51.61323 | 28 ft | 0 kts | 248° |